Dayton, OH (45435)

11:38 AM EDT on August 03, 2015 (GMT -0400)
Gardenview | | Change Station
CLOSE
Current Station
Personal Weather Station
Location: Dayton, OH
Elevation: 958 ft
Nearby Weather Stations

Elev 958 ft 39.76 °N, 84.08 °W | Updated 8 minutes ago

Mostly Cloudy
Mostly Cloudy
74.5 °F
Feels Like 76 °F
N
4.2
Wind Variable Wind from SW

Today
High -- | Low -- °F
--% Chance of Precip.
Yesterday
High -- | Low -- °F
Precip. -- in
6:36 AM 8:47 PM
Waning Gibbous, 86% visible
Pressure 29.87 in
Visibility 10.0 miles
Clouds Scattered Clouds 3900 ft
Heat Index 76 °F
Dew Point 66 °F
Humidity 75%
Rainfall 0.48 in
Snow Depth Not available.
UV 6 out of 12
Pollen 6.30 out of 12
Air Quality Not available.
Flu Activity Not available.
METAR KFFO 031458Z AUTO 21009KT 10SM SCT039 22/18 A2987 RMK AO2 SLP113 60001 T02230178 51006

More Conditions Fewer Conditions

Pressure 29.87 in
Visibility 10.0 miles
Clouds Scattered Clouds 3900 ft
Heat Index 76 °F
Dew Point 66 °F
Humidity 75%
Rainfall 0.48 in
Snow Depth Not available.
UV 6 out of 12
Pollen 6.30 out of 12
Air Quality Not available.
Flu Activity Not available.
METAR KFFO 031458Z AUTO 21009KT 10SM SCT039 22/18 A2987 RMK AO2 SLP113 60001 T02230178 51006

More Conditions Fewer Conditions

10-Day Weather Forecast

×

Almanac

Astronomy

Aug. 03, 2015 Rise Set
Actual Time
Civil Twilight
Nautical Twilight
Astronomical Twilight
Moon
Length of Visible Light
Length of Day
Tomorrow will be .
, % of the Moon is Illuminated

Today's Extremes

State Highs State Lows

Community

WunderPhotos

Upload Photos

1,843,645 photos uploaded!

WunderBlogs® & News

Nearby

Air Quality

  Air Quality AQ Index Pollutant
Not available.

Snow Depth

Station Depth Elevation

Earthquake Activity

City Distance Mag. Time & Date
Minimum magnitude displayed is 2.5.

Coastal Water Temperatures

Place Temperature

Stations

Nearby Weather Stations

Station Location Temp. Windchill Dew Point Humidity Wind Precip. Elev Updated Type